createdAt,value
2023-05-04T00:00:50.707Z,98936.19
2023-05-04T00:03:40.228Z,98939.47
2023-05-04T00:06:28.655Z,98941.06
2023-05-04T00:09:16.411Z,98940.69
2023-05-04T00:12:04.743Z,98931.47
2023-05-04T00:14:52.957Z,98930.16
2023-05-04T00:17:41.071Z,98932.31
2023-05-04T00:20:30.238Z,98935.19
2023-05-04T00:23:18.134Z,98934.75
2023-05-04T00:26:06.333Z,98931.72
2023-05-04T00:28:54.267Z,98926.94
2023-05-04T00:31:42.168Z,98928.13
2023-05-04T00:34:31.888Z,98924.31
2023-05-04T00:37:21.378Z,98926.47
2023-05-04T00:40:11.141Z,98927.19
2023-05-04T00:42:58.911Z,98918.88
2023-05-04T00:45:47.429Z,98924.69
2023-05-04T00:48:35.038Z,98908.44
2023-05-04T00:51:27.780Z,98912.53
2023-05-04T00:54:18.844Z,98920.69
2023-05-04T00:57:07.223Z,98920.19
2023-05-04T00:59:55.429Z,98917.78
2023-05-04T01:02:43.581Z,98920.78
2023-05-04T01:05:36.794Z,98922.97
2023-05-04T01:08:28.669Z,98916.34
2023-05-04T01:11:23.611Z,98920.41
2023-05-04T01:14:13.642Z,98910.28
2023-05-04T01:17:03.424Z,98906.34
2023-05-04T01:19:54.041Z,98912.69
2023-05-04T01:22:43.584Z,98906.91
2023-05-04T01:25:37.054Z,98909.09
2023-05-04T01:28:31.764Z,98910.28
2023-05-04T01:31:24.667Z,98905.44
2023-05-04T01:34:13.203Z,98904.84
2023-05-04T01:37:01.752Z,98915.72
2023-05-04T01:39:51.753Z,98899.19
2023-05-04T01:42:39.588Z,98912.97
2023-05-04T01:45:27.488Z,98909.69
2023-05-04T01:48:15.524Z,98905.72
2023-05-04T01:51:03.730Z,98905.81
2023-05-04T01:53:51.937Z,98917.81
2023-05-04T01:56:41.349Z,98915.38
2023-05-04T01:59:28.934Z,98909.47
2023-05-04T02:02:16.961Z,98910.56
2023-05-04T02:05:05.227Z,98912.47
2023-05-04T02:07:53.023Z,98912.91
2023-05-04T02:10:41.203Z,98910.59
2023-05-04T02:13:30.450Z,98915.28
2023-05-04T02:16:18.734Z,98915.50
2023-05-04T02:19:06.825Z,98914.81
2023-05-04T02:21:54.857Z,98908.00
2023-05-04T02:24:44.324Z,98909.38
2023-05-04T02:27:32.314Z,98907.94
2023-05-04T02:30:21.595Z,98905.31
2023-05-04T02:33:10.023Z,98906.34
2023-05-04T02:35:58.276Z,98909.19
2023-05-04T02:38:46.527Z,98898.03
2023-05-04T02:41:34.640Z,98905.44
2023-05-04T02:44:22.794Z,98903.00
2023-05-04T02:47:12.197Z,98903.97
2023-05-04T02:50:00.054Z,98898.91
2023-05-04T02:52:48.234Z,98898.16
2023-05-04T02:55:35.891Z,98902.72
2023-05-04T02:58:23.958Z,98914.41
2023-05-04T03:01:12.491Z,98904.72
2023-05-04T03:04:01.812Z,98909.16
2023-05-04T03:06:49.724Z,98913.19
2023-05-04T03:09:37.724Z,98904.66
2023-05-04T03:12:26.203Z,98910.97
2023-05-04T03:15:14.244Z,98906.13
2023-05-04T03:18:02.551Z,98913.81
2023-05-04T03:20:51.781Z,98915.63
2023-05-04T03:23:39.821Z,98913.94
2023-05-04T03:26:27.640Z,98916.28
2023-05-04T03:29:18.709Z,98907.84
2023-05-04T03:32:07.105Z,98909.00
2023-05-04T03:34:55.174Z,98909.31
2023-05-04T03:37:44.678Z,98910.28
2023-05-04T03:40:32.282Z,98903.53
2023-05-04T03:43:20.043Z,98902.81
2023-05-04T03:46:08.205Z,98906.38
2023-05-04T03:48:56.027Z,98908.28
2023-05-04T03:51:43.905Z,98909.94
2023-05-04T03:54:33.192Z,98916.19
2023-05-04T03:57:22.378Z,98910.25
2023-05-04T04:00:11.841Z,98909.56
2023-05-04T04:02:59.963Z,98909.75
2023-05-04T04:05:47.762Z,98901.22
2023-05-04T04:08:35.872Z,98899.53
2023-05-04T04:11:26.391Z,98902.38
2023-05-04T04:14:14.429Z,98911.22
2023-05-04T04:17:02.604Z,98908.72
2023-05-04T04:19:50.334Z,98908.72
2023-05-04T04:22:38.421Z,98906.19
2023-05-04T04:25:26.072Z,98916.72
2023-05-04T04:28:16.530Z,98915.97
2023-05-04T04:31:04.840Z,98915.97
2023-05-04T04:33:52.893Z,98911.66
2023-05-04T04:36:40.659Z,98909.72
2023-05-04T04:39:28.974Z,98911.75
2023-05-04T04:42:17.441Z,98909.75
2023-05-04T04:45:08.079Z,98912.50
2023-05-04T04:47:56.219Z,98919.44
2023-05-04T04:50:44.258Z,98922.81
2023-05-04T04:53:32.370Z,98921.75
2023-05-04T04:56:21.591Z,98916.19
2023-05-04T04:59:10.041Z,98925.53
2023-05-04T05:01:59.311Z,98921.78
2023-05-04T05:04:47.634Z,98924.94
2023-05-04T05:07:35.486Z,98940.94
2023-05-04T05:10:23.770Z,98923.84
2023-05-04T05:13:12.022Z,98927.00
2023-05-04T05:16:00.270Z,98929.09
2023-05-04T05:18:49.759Z,98924.66
2023-05-04T05:21:37.575Z,98922.75
2023-05-04T05:24:29.939Z,98934.31
2023-05-04T05:27:18.138Z,98930.94
2023-05-04T05:30:09.504Z,98937.66
2023-05-04T05:32:57.735Z,98934.69
2023-05-04T05:35:47.413Z,98938.41
2023-05-04T05:38:35.450Z,98940.88
2023-05-04T05:41:24.004Z,98944.22
2023-05-04T05:44:13.065Z,98935.59
2023-05-04T05:47:02.347Z,98935.41
2023-05-04T05:49:50.506Z,98942.44
2023-05-04T05:52:40.051Z,98936.50
2023-05-04T05:55:27.869Z,98939.63
2023-05-04T05:58:15.796Z,98940.63
2023-05-04T06:01:04.038Z,98942.31
2023-05-04T06:03:51.933Z,98935.13
2023-05-04T06:06:40.184Z,98933.38
2023-05-04T06:09:29.422Z,98930.72
2023-05-04T06:12:17.602Z,98930.16
2023-05-04T06:15:06.438Z,98920.28
2023-05-04T06:17:54.407Z,98913.41
2023-05-04T06:20:42.190Z,98910.22
2023-05-04T06:23:31.457Z,98911.50
2023-05-04T06:26:22.040Z,98909.09
2023-05-04T06:29:09.971Z,98911.69
2023-05-04T06:31:58.183Z,98902.53
2023-05-04T06:34:46.092Z,98897.88
2023-05-04T06:37:34.168Z,98903.75
2023-05-04T06:40:22.264Z,98898.09
2023-05-04T06:43:11.678Z,98894.91
2023-05-04T06:46:03.231Z,98894.63
2023-05-04T06:48:51.429Z,98889.81
2023-05-04T06:51:39.499Z,98880.25
2023-05-04T06:54:27.548Z,98885.56
2023-05-04T06:57:15.337Z,98883.47
2023-05-04T07:00:08.553Z,98884.72
2023-05-04T07:02:57.091Z,98880.59
2023-05-04T07:05:45.496Z,98880.16
2023-05-04T07:08:34.090Z,98874.19
2023-05-04T07:11:22.024Z,98877.66
2023-05-04T07:14:11.265Z,98871.88
2023-05-04T07:17:02.165Z,98875.06
2023-05-04T07:19:52.289Z,98864.63
2023-05-04T07:22:40.377Z,98866.50
2023-05-04T07:25:29.077Z,98866.91
2023-05-04T07:28:17.201Z,98864.38
2023-05-04T07:31:05.438Z,98855.13
2023-05-04T07:33:54.814Z,98854.81
2023-05-04T07:36:43.532Z,98850.03
2023-05-04T07:39:31.377Z,98834.31
2023-05-04T07:42:19.482Z,98831.91
2023-05-04T07:45:09.734Z,98828.81
2023-05-04T07:47:57.745Z,98827.91
2023-05-04T07:50:47.702Z,98827.44
2023-05-04T07:53:35.791Z,98822.03
2023-05-04T07:56:23.930Z,98825.41
2023-05-04T07:59:12.007Z,98818.44
2023-05-04T08:02:00.663Z,98820.00
2023-05-04T08:04:48.684Z,98821.78
2023-05-04T08:07:38.033Z,98816.13
2023-05-04T08:10:26.005Z,98816.31
2023-05-04T08:13:14.127Z,98827.34
2023-05-04T08:16:04.988Z,98809.47
2023-05-04T08:18:53.534Z,98816.78
2023-05-04T08:21:41.631Z,98820.41
2023-05-04T08:24:31.457Z,98807.00
2023-05-04T08:27:19.327Z,98804.00
2023-05-04T08:30:08.710Z,98802.59
2023-05-04T08:32:56.854Z,98800.66
2023-05-04T08:35:45.217Z,98797.81
2023-05-04T08:38:33.620Z,98800.41
2023-05-04T08:41:23.682Z,98797.31
2023-05-04T08:44:12.410Z,98799.00
2023-05-04T08:47:00.260Z,98801.78
2023-05-04T08:49:50.810Z,98797.91
2023-05-04T08:52:39.493Z,98800.44
2023-05-04T08:55:27.294Z,98801.47
2023-05-04T08:58:18.027Z,98788.56
2023-05-04T09:01:08.328Z,98792.31
2023-05-04T09:03:57.220Z,98791.97
2023-05-04T09:06:47.488Z,98790.34
2023-05-04T09:09:35.633Z,98784.47
2023-05-04T09:12:23.643Z,98792.75
2023-05-04T09:15:20.024Z,98789.91
2023-05-04T09:18:10.435Z,98780.06
2023-05-04T09:20:58.239Z,98761.00
2023-05-04T09:23:51.329Z,98767.56
2023-05-04T09:26:39.493Z,98773.03
2023-05-04T09:29:27.041Z,98756.88
2023-05-04T09:32:16.412Z,98739.59
2023-05-04T09:35:04.599Z,98743.34
2023-05-04T09:37:52.970Z,98748.41
2023-05-04T09:40:42.385Z,98745.00
2023-05-04T09:43:40.136Z,98737.69
2023-05-04T09:46:28.201Z,98733.56
2023-05-04T09:49:18.750Z,98739.66
2023-05-04T09:52:07.418Z,98729.69
2023-05-04T09:54:55.901Z,98723.69
2023-05-04T09:57:45.466Z,98713.47
2023-05-04T10:00:33.560Z,98720.34
2023-05-04T10:03:21.843Z,98713.47
2023-05-04T10:06:12.216Z,98713.28
2023-05-04T10:09:01.636Z,98715.41
2023-05-04T10:11:50.496Z,98708.81
2023-05-04T10:14:39.961Z,98704.25
2023-05-04T10:17:41.801Z,98695.56
2023-05-04T10:20:47.570Z,98704.38
2023-05-04T10:23:58.157Z,98702.03
2023-05-04T10:27:00.631Z,98693.94
2023-05-04T10:29:51.885Z,98695.88
2023-05-04T10:32:41.546Z,98690.47
2023-05-04T10:35:29.554Z,98688.09
2023-05-04T10:38:17.492Z,98679.28
2023-05-04T10:41:16.499Z,98662.91
2023-05-04T10:44:05.150Z,98668.03
2023-05-04T10:47:01.716Z,98654.81
2023-05-04T10:49:50.050Z,98660.22
2023-05-04T10:52:50.909Z,98659.56
2023-05-04T10:55:44.997Z,98654.63
2023-05-04T10:58:34.202Z,98644.03
2023-05-04T11:01:22.998Z,98639.84
2023-05-04T11:04:20.873Z,98627.56
2023-05-04T11:07:09.148Z,98621.84
2023-05-04T11:09:57.230Z,98614.09
2023-05-04T11:12:45.619Z,98614.72
2023-05-04T11:15:44.666Z,98611.47
2023-05-04T11:18:37.434Z,98611.34
2023-05-04T11:21:26.232Z,98609.09
2023-05-04T11:24:14.624Z,98608.28
2023-05-04T11:27:03.575Z,98611.03
2023-05-04T11:29:56.412Z,98599.03
2023-05-04T11:32:47.387Z,98591.75
2023-05-04T11:35:35.719Z,98584.84
2023-05-04T11:38:23.859Z,98594.00
2023-05-04T11:41:13.224Z,98592.69
2023-05-04T11:44:01.790Z,98591.44
2023-05-04T11:46:51.718Z,98583.72
2023-05-04T11:49:41.663Z,98583.94
2023-05-04T11:52:30.712Z,98580.91
2023-05-04T11:55:28.583Z,98577.50
2023-05-04T11:58:24.477Z,98585.34
2023-05-04T12:01:12.623Z,98575.47
2023-05-04T12:04:00.959Z,98577.06
2023-05-04T12:06:50.638Z,98573.78
2023-05-04T12:09:46.499Z,98566.72
2023-05-04T12:12:37.563Z,98571.19
2023-05-04T12:15:36.725Z,98562.47
2023-05-04T12:18:29.555Z,98569.44
2023-05-04T12:21:20.309Z,98562.72
2023-05-04T12:24:09.929Z,98546.47
2023-05-04T12:26:57.713Z,98545.19
2023-05-04T12:29:45.928Z,98547.03
2023-05-04T12:32:33.962Z,98534.38
2023-05-04T12:35:21.938Z,98541.53
2023-05-04T12:38:09.949Z,98536.25
2023-05-04T12:41:02.325Z,98536.50
2023-05-04T12:43:50.914Z,98534.97
2023-05-04T12:46:39.088Z,98546.69
2023-05-04T12:49:35.311Z,98540.31
2023-05-04T12:52:23.143Z,98543.47
2023-05-04T12:55:11.189Z,98520.69
2023-05-04T12:58:02.300Z,98529.59
2023-05-04T13:00:50.401Z,98516.28
2023-05-04T13:03:38.384Z,98510.84
2023-05-04T13:06:26.301Z,98508.50
2023-05-04T13:09:14.307Z,98510.19
2023-05-04T13:12:03.113Z,98498.47
2023-05-04T13:14:55.285Z,98504.19
2023-05-04T13:17:44.541Z,98511.47
2023-05-04T13:20:33.040Z,98504.44
2023-05-04T13:23:21.483Z,98500.91
2023-05-04T13:26:09.241Z,98495.47
2023-05-04T13:28:57.554Z,98499.84
2023-05-04T13:31:47.090Z,98504.63
2023-05-04T13:34:35.631Z,98487.25
2023-05-04T13:37:23.401Z,98471.56
2023-05-04T13:40:12.904Z,98460.38
2023-05-04T13:43:01.118Z,98444.78
2023-05-04T13:45:49.166Z,98452.88
2023-05-04T13:48:38.391Z,98454.28
2023-05-04T13:51:26.841Z,98446.13
2023-05-04T13:54:14.734Z,98439.53
2023-05-04T13:57:02.916Z,98438.44
2023-05-04T14:00:05.159Z,98426.66
2023-05-04T14:02:54.278Z,98424.22
2023-05-04T14:05:43.573Z,98419.28
2023-05-04T14:08:31.359Z,98416.28
2023-05-04T14:11:20.412Z,98414.91
2023-05-04T14:14:08.748Z,98423.41
2023-05-04T14:16:56.707Z,98418.00
2023-05-04T14:19:45.300Z,98421.91
2023-05-04T14:22:37.224Z,98418.31
2023-05-04T14:25:26.011Z,98422.63
2023-05-04T14:28:14.984Z,98414.88
2023-05-04T14:31:08.835Z,98404.47
2023-05-04T14:33:57.047Z,98402.28
2023-05-04T14:36:45.042Z,98386.94
2023-05-04T14:39:34.279Z,98377.00
2023-05-04T14:42:22.257Z,98380.84
2023-05-04T14:45:11.494Z,98372.13
2023-05-04T14:47:59.418Z,98373.50
2023-05-04T14:50:47.630Z,98381.97
2023-05-04T14:53:37.013Z,98356.31
2023-05-04T14:56:29.129Z,98363.34
2023-05-04T14:59:19.062Z,98363.69
2023-05-04T15:02:08.328Z,98366.47
2023-05-04T15:04:56.478Z,98358.16
2023-05-04T15:07:44.212Z,98357.38
2023-05-04T15:10:32.418Z,98348.47
2023-05-04T15:13:21.664Z,98347.28
2023-05-04T15:16:09.814Z,98349.34
2023-05-04T15:18:57.914Z,98340.75
2023-05-04T15:21:46.072Z,98333.34
2023-05-04T15:24:34.087Z,98326.00
2023-05-04T15:27:21.704Z,98327.56
2023-05-04T15:30:12.412Z,98330.41
2023-05-04T15:33:00.444Z,98330.56
2023-05-04T15:35:48.227Z,98327.53
2023-05-04T15:38:36.946Z,98335.72
2023-05-04T15:41:27.552Z,98328.97
2023-05-04T15:44:15.340Z,98324.75
2023-05-04T15:47:05.229Z,98321.81
2023-05-04T15:49:53.419Z,98312.09
2023-05-04T15:52:41.825Z,98315.56
2023-05-04T15:55:29.975Z,98312.59
2023-05-04T15:58:17.804Z,98308.34
2023-05-04T16:01:09.362Z,98312.38
2023-05-04T16:04:00.559Z,98309.25
2023-05-04T16:06:48.773Z,98307.09
2023-05-04T16:09:36.709Z,98304.81
2023-05-04T16:12:24.801Z,98309.22
2023-05-04T16:15:13.320Z,98307.19
2023-05-04T16:18:01.955Z,98301.69
2023-05-04T16:20:54.721Z,98308.53
2023-05-04T16:23:42.593Z,98312.78
2023-05-04T16:26:30.567Z,98309.66
2023-05-04T16:29:18.689Z,98305.34
2023-05-04T16:32:07.002Z,98305.97
2023-05-04T16:34:54.889Z,98304.25
2023-05-04T16:37:45.132Z,98296.56
2023-05-04T16:40:35.161Z,98299.34
2023-05-04T16:43:24.014Z,98296.00
2023-05-04T16:46:12.197Z,98287.97
2023-05-04T16:49:00.047Z,98292.69
2023-05-04T16:51:48.133Z,98287.00
2023-05-04T16:54:37.546Z,98285.94
2023-05-04T16:57:25.368Z,98277.44
2023-05-04T17:00:14.345Z,98281.03
2023-05-04T17:03:02.346Z,98274.53
2023-05-04T17:05:53.202Z,98273.53
2023-05-04T17:08:41.023Z,98281.47
2023-05-04T17:11:31.606Z,98282.56
2023-05-04T17:14:19.506Z,98282.25
2023-05-04T17:17:08.010Z,98283.53
2023-05-04T17:19:55.959Z,98279.91
2023-05-04T17:22:44.478Z,98283.66
2023-05-04T17:25:33.980Z,98286.28
2023-05-04T17:28:23.313Z,98287.44
2023-05-04T17:31:12.648Z,98295.19
2023-05-04T17:34:00.249Z,98299.69
2023-05-04T17:36:49.092Z,98301.38
2023-05-04T17:39:36.899Z,98301.09
2023-05-04T17:42:24.732Z,98305.75
2023-05-04T17:45:14.372Z,98310.66
2023-05-04T17:48:02.183Z,98311.50
2023-05-04T17:50:50.305Z,98326.97
2023-05-04T17:53:38.237Z,98326.03
2023-05-04T17:56:26.206Z,98326.69
2023-05-04T17:59:14.358Z,98333.44
2023-05-04T18:02:04.231Z,98333.59
2023-05-04T18:04:52.093Z,98340.78
2023-05-04T18:07:40.040Z,98342.88
2023-05-04T18:10:28.326Z,98347.50
2023-05-04T18:13:16.474Z,98346.94
2023-05-04T18:16:04.791Z,98350.50
2023-05-04T18:18:54.782Z,98355.09
2023-05-04T18:21:43.538Z,98348.78
2023-05-04T18:24:33.307Z,98353.34
2023-05-04T18:27:21.822Z,98361.38
2023-05-04T18:30:11.037Z,98359.00
2023-05-04T18:32:58.687Z,98357.22
2023-05-04T18:35:47.913Z,98360.81
2023-05-04T18:38:36.124Z,98361.47
2023-05-04T18:41:25.076Z,98368.34
2023-05-04T18:44:13.169Z,98362.34
2023-05-04T18:47:01.036Z,98362.28
2023-05-04T18:49:52.206Z,98369.31
2023-05-04T18:52:41.584Z,98363.63
2023-05-04T18:55:29.412Z,98376.34
2023-05-04T18:58:20.705Z,98374.53
2023-05-04T19:01:08.590Z,98363.63
2023-05-04T19:03:56.712Z,98378.00
2023-05-04T19:06:45.509Z,98379.66
2023-05-04T19:09:36.045Z,98378.00
2023-05-04T19:12:26.074Z,98381.09
2023-05-04T19:15:14.825Z,98390.00
2023-05-04T19:18:03.987Z,98381.72
2023-05-04T19:20:52.109Z,98381.88
2023-05-04T19:23:40.046Z,98379.91
2023-05-04T19:26:32.522Z,98377.97
2023-05-04T19:29:20.239Z,98375.25
2023-05-04T19:32:19.676Z,98370.19
2023-05-04T19:35:11.157Z,98372.16
2023-05-04T19:38:01.318Z,98382.03
2023-05-04T19:40:49.208Z,98383.78
2023-05-04T19:43:39.493Z,98398.13
2023-05-04T19:46:31.743Z,98397.00
2023-05-04T19:49:29.521Z,98402.28
2023-05-04T19:52:19.833Z,98417.44
2023-05-04T19:55:08.855Z,98414.81
2023-05-04T19:57:59.675Z,98418.34
2023-05-04T20:00:51.567Z,98425.63
2023-05-04T20:03:39.586Z,98424.63
2023-05-04T20:06:27.842Z,98419.94
2023-05-04T20:09:15.784Z,98418.94
2023-05-04T20:12:04.448Z,98412.19
2023-05-04T20:14:54.512Z,98415.72
2023-05-04T20:17:49.327Z,98421.53
2023-05-04T20:20:37.485Z,98428.19
2023-05-04T20:23:25.977Z,98428.13
2023-05-04T20:26:13.711Z,98411.50
2023-05-04T20:29:01.785Z,98409.91
2023-05-04T20:31:49.787Z,98402.69
2023-05-04T20:34:39.832Z,98404.78
2023-05-04T20:37:27.693Z,98410.56
2023-05-04T20:40:16.770Z,98402.97
2023-05-04T20:43:05.398Z,98401.53
2023-05-04T20:45:54.698Z,98389.41
2023-05-04T20:48:44.776Z,98391.50
2023-05-04T20:51:33.998Z,98382.88
2023-05-04T20:54:22.576Z,98391.25
2023-05-04T20:57:10.446Z,98389.66
2023-05-04T21:00:02.598Z,98393.72
2023-05-04T21:02:50.777Z,98390.25
2023-05-04T21:05:40.735Z,98378.59
2023-05-04T21:08:29.944Z,98391.50
2023-05-04T21:11:18.108Z,98391.53
2023-05-04T21:14:05.926Z,98392.56
2023-05-04T21:16:56.461Z,98397.28
2023-05-04T21:19:44.342Z,98401.66
2023-05-04T21:22:32.406Z,98401.00
2023-05-04T21:25:21.635Z,98395.00
2023-05-04T21:28:09.601Z,98393.38
2023-05-04T21:30:57.462Z,98400.50
2023-05-04T21:33:45.388Z,98397.84
2023-05-04T21:36:33.464Z,98397.69
2023-05-04T21:39:21.708Z,98403.19
2023-05-04T21:42:11.284Z,98412.03
2023-05-04T21:44:59.912Z,98409.34
2023-05-04T21:47:47.864Z,98411.00
2023-05-04T21:50:36.107Z,98412.69
2023-05-04T21:53:23.852Z,98410.81
2023-05-04T21:56:12.912Z,98419.00
2023-05-04T21:59:02.219Z,98414.63
2023-05-04T22:01:50.059Z,98405.63
2023-05-04T22:04:38.244Z,98399.25
2023-05-04T22:07:26.907Z,98404.75
2023-05-04T22:10:14.653Z,98399.22
2023-05-04T22:13:02.673Z,98389.41
2023-05-04T22:15:52.096Z,98392.69
2023-05-04T22:18:41.028Z,98390.84
2023-05-04T22:21:29.318Z,98389.78
2023-05-04T22:24:17.492Z,98392.25
2023-05-04T22:27:05.514Z,98408.38
2023-05-04T22:29:53.537Z,98411.50
2023-05-04T22:32:42.837Z,98421.28
2023-05-04T22:35:31.369Z,98418.59
2023-05-04T22:38:19.198Z,98424.69
2023-05-04T22:41:07.429Z,98420.16
2023-05-04T22:43:55.500Z,98416.47
2023-05-04T22:46:43.751Z,98414.56
2023-05-04T22:49:32.884Z,98419.66
2023-05-04T22:52:20.794Z,98421.97
2023-05-04T22:55:09.905Z,98413.06
2023-05-04T22:57:57.806Z,98423.34
2023-05-04T23:00:47.834Z,98416.84
2023-05-04T23:03:35.920Z,98417.59
2023-05-04T23:06:25.615Z,98417.38
2023-05-04T23:09:14.678Z,98413.50
2023-05-04T23:12:02.467Z,98422.06
2023-05-04T23:14:52.448Z,98421.88
2023-05-04T23:17:41.077Z,98417.31
2023-05-04T23:20:29.355Z,98421.41
2023-05-04T23:23:18.442Z,98416.69
2023-05-04T23:26:06.467Z,98409.19
2023-05-04T23:28:54.562Z,98406.97
2023-05-04T23:31:42.606Z,98419.00
2023-05-04T23:34:30.494Z,98414.28
2023-05-04T23:37:18.455Z,98399.78
2023-05-04T23:40:10.214Z,98409.19
2023-05-04T23:42:58.578Z,98407.09
2023-05-04T23:45:47.439Z,98410.22
2023-05-04T23:48:35.473Z,98408.84
2023-05-04T23:51:23.503Z,98406.78
2023-05-04T23:54:11.157Z,98402.75
2023-05-04T23:57:00.479Z,98402.34
2023-05-04T23:59:48.608Z,98405.47
